Time;durP1;ratioP1;P1;durP2;ratioP2;P2;SDS_P1;SDS_P2;PMS_P1;PMS_P2;Temp;Humidity;BMP_temperature;BMP_pressure;BME280_temperature;BME280_humidity;BME280_pressure;Samples;Min_cycle;Max_cycle;Signal;HPM_P1;HPM_P2
2022/05/28 00:02:20;;;;;;;3.78;2.62;;;25.80;68.30;;;;;;10909848;32;20030;-77
2022/05/28 00:08:24;;;;;;;4.35;2.58;;;25.80;68.50;;;;;;10907705;32;20022;-77
2022/05/28 00:14:26;;;;;;;5.03;3.15;;;25.80;69.00;;;;;;10544752;32;12055471;-77
2022/05/28 00:20:28;;;;;;;4.18;2.30;;;25.80;69.20;;;;;;10833999;32;20066;-77
2022/05/28 00:26:31;;;;;;;3.97;2.53;;;25.80;69.20;;;;;;10833169;32;20036;-76
2022/05/28 00:32:34;;;;;;;8.27;2.72;;;25.80;69.40;;;;;;10821548;32;20328;-77
2022/05/28 00:38:38;;;;;;;3.92;2.50;;;25.60;69.40;;;;;;10832777;32;20047;-77
2022/05/28 00:44:40;;;;;;;3.70;2.28;;;25.60;69.60;;;;;;10893241;32;20050;-77
2022/05/28 00:50:43;;;;;;;4.28;2.05;;;25.60;70.10;;;;;;10910317;32;20046;-77
2022/05/28 00:56:45;;;;;;;4.82;3.17;;;25.60;70.10;;;;;;10910050;32;20023;-77
2022/05/28 01:03:02;;;;;;;3.00;2.45;;;25.60;70.30;;;;;;10892461;32;20015;-77
2022/05/28 01:09:19;;;;;;;5.87;2.47;;;25.50;70.10;;;;;;10909592;32;20403;-77
2022/05/28 01:15:35;;;;;;;3.70;2.30;;;25.50;70.20;;;;;;10940551;27;20334;-77
2022/05/28 01:21:47;;;;;;;4.87;3.15;;;25.40;70.80;;;;;;10982177;32;20022;-77
2022/05/28 01:28:13;;;;;;;6.30;2.90;;;25.40;71.00;;;;;;10984237;32;20088;-76
2022/05/28 01:34:17;;;;;;;3.80;2.15;;;25.40;70.80;;;;;;10984197;32;20023;-77
2022/05/28 01:40:22;;;;;;;6.12;3.37;;;25.40;70.80;;;;;;10983953;32;20023;-77
2022/05/28 01:46:46;;;;;;;4.90;3.12;;;25.30;70.70;;;;;;10966167;32;20045;-77
2022/05/28 01:52:51;;;;;;;4.37;2.95;;;25.20;70.90;;;;;;10983466;32;20010;-77
2022/05/28 01:58:53;;;;;;;10.15;3.30;;;25.10;71.90;;;;;;10983357;32;20038;-77
2022/05/28 02:04:55;;;;;;;5.65;2.85;;;25.10;71.80;;;;;;10966883;32;20015;-77
2022/05/28 02:11:13;;;;;;;7.25;2.95;;;25.10;72.00;;;;;;10983008;32;20421;-77
2022/05/28 02:17:21;;;;;;;7.65;3.08;;;25.10;72.10;;;;;;10982762;32;20019;-76
2022/05/28 02:23:28;;;;;;;5.53;3.78;;;25.00;72.20;;;;;;10982369;32;20027;-77
2022/05/28 02:29:32;;;;;;;10.23;3.03;;;25.00;72.30;;;;;;10977903;32;20035;-77
2022/05/28 02:35:36;;;;;;;9.27;3.55;;;24.90;72.30;;;;;;10981901;32;20030;-76
2022/05/28 02:41:38;;;;;;;4.45;2.60;;;24.90;72.20;;;;;;10981944;32;20015;-76
2022/05/28 02:47:40;;;;;;;7.32;3.22;;;24.80;72.30;;;;;;10981626;32;20022;-76
2022/05/28 02:53:42;;;;;;;7.18;3.75;;;24.70;72.60;;;;;;10981379;32;20006;-76
2022/05/28 02:59:44;;;;;;;3.45;2.42;;;24.70;72.90;;;;;;10981297;32;20041;-76
2022/05/28 03:05:48;;;;;;;8.13;3.55;;;24.60;72.70;;;;;;10980791;32;20018;-76
2022/05/28 03:11:50;;;;;;;4.22;2.72;;;24.50;72.80;;;;;;10980785;32;20022;-76
2022/05/28 03:17:52;;;;;;;6.10;3.05;;;24.40;72.90;;;;;;10980550;32;20379;-77
2022/05/28 03:23:54;;;;;;;5.65;3.62;;;24.40;73.10;;;;;;10980414;32;20019;-76
2022/05/28 03:29:56;;;;;;;6.12;2.72;;;24.40;73.30;;;;;;10980124;32;20056;-76
2022/05/28 03:35:58;;;;;;;5.20;2.95;;;24.50;73.00;;;;;;10978798;32;20022;-76
2022/05/28 03:42:00;;;;;;;4.07;2.97;;;24.50;72.90;;;;;;10979860;32;20019;-76
2022/05/28 03:48:03;;;;;;;5.05;3.37;;;24.40;73.10;;;;;;10979680;32;20027;-76
2022/05/28 03:54:05;;;;;;;4.40;2.85;;;24.40;73.20;;;;;;10979958;32;20019;-76
2022/05/28 04:00:09;;;;;;;6.70;3.15;;;24.40;73.20;;;;;;10975426;32;20023;-77
2022/05/28 04:06:27;;;;;;;6.80;3.80;;;24.40;73.50;;;;;;10980248;32;20015;-77
2022/05/28 04:12:30;;;;;;;7.03;3.53;;;24.40;73.30;;;;;;10979442;32;20476;-77
2022/05/28 04:18:33;;;;;;;8.02;4.85;;;24.40;73.20;;;;;;10978247;32;20019;-76
2022/05/28 04:24:35;;;;;;;5.50;3.30;;;24.40;73.20;;;;;;10979176;32;20002;-77
2022/05/28 04:30:37;;;;;;;6.37;3.65;;;24.60;73.20;;;;;;10974730;32;20403;-76
2022/05/28 04:36:52;;;;;;;6.45;4.22;;;24.60;73.30;;;;;;10979100;32;20023;-77
2022/05/28 04:42:54;;;;;;;8.55;4.20;;;24.50;73.60;;;;;;10979059;32;20023;-76
2022/05/28 04:48:57;;;;;;;5.10;3.72;;;24.50;73.80;;;;;;10984367;32;20022;-76
2022/05/28 04:54:59;;;;;;;11.18;4.03;;;24.60;73.80;;;;;;10985565;32;20050;-77
2022/05/28 05:01:02;;;;;;;11.85;5.25;;;24.60;73.90;;;;;;10985341;32;20049;-77
2022/05/28 05:07:07;;;;;;;7.60;5.43;;;24.60;74.00;;;;;;10984857;32;20027;-76
2022/05/28 05:13:10;;;;;;;10.45;5.12;;;24.60;74.00;;;;;;10985549;32;20391;-76
2022/05/28 05:19:12;;;;;;;9.77;6.05;;;24.60;74.20;;;;;;10967790;32;20019;-76
2022/05/28 05:25:14;;;;;;;8.18;4.65;;;24.60;74.40;;;;;;10984500;32;20064;-76
2022/05/28 05:31:23;;;;;;;9.20;4.43;;;24.60;74.50;;;;;;10984160;32;20031;-77
2022/05/28 05:37:27;;;;;;;8.07;5.57;;;24.70;74.30;;;;;;10968147;32;20027;-76
2022/05/28 05:43:29;;;;;;;7.72;5.62;;;24.60;74.50;;;;;;10983788;32;20092;-75
2022/05/28 05:49:31;;;;;;;7.20;5.55;;;24.80;74.30;;;;;;10983737;32;20022;-77
2022/05/28 05:55:35;;;;;;;14.63;5.60;;;24.80;74.30;;;;;;10983448;32;20049;-77
2022/05/28 06:01:37;;;;;;;11.25;4.78;;;24.80;74.00;;;;;;10969212;32;20019;-76
2022/05/28 06:07:40;;;;;;;8.25;6.20;;;24.80;74.00;;;;;;10978921;32;20050;-77
2022/05/28 06:13:43;;;;;;;12.75;7.70;;;24.80;74.00;;;;;;10982659;32;20039;-77
2022/05/28 06:19:45;;;;;;;9.20;4.95;;;24.80;74.20;;;;;;10978567;32;20418;-76
2022/05/28 06:25:48;;;;;;;9.57;5.82;;;24.80;74.40;;;;;;10978222;32;20048;-77
2022/05/28 06:31:50;;;;;;;9.15;6.37;;;24.80;74.80;;;;;;10982021;32;20054;-76
2022/05/28 06:37:52;;;;;;;8.48;5.35;;;24.80;74.60;;;;;;10972417;32;20038;-77
2022/05/28 06:43:54;;;;;;;9.68;4.80;;;24.90;74.40;;;;;;10981685;32;20061;-77
2022/05/28 06:56:19;;;;;;;17.10;8.05;;;25.30;73.40;;;;;;10978358;32;20037;-77
2022/05/28 07:02:21;;;;;;;9.57;7.72;;;25.50;72.30;;;;;;10979807;32;20019;-76
2022/05/28 07:08:24;;;;;;;10.88;5.97;;;25.60;71.60;;;;;;10979039;32;20129;-78
2022/05/28 07:14:26;;;;;;;7.68;5.47;;;25.60;71.10;;;;;;10977491;32;20060;-78
2022/05/28 07:20:29;;;;;;;6.90;4.68;;;25.60;70.90;;;;;;10976356;32;20041;-77
2022/05/28 07:26:32;;;;;;;11.55;3.83;;;25.80;70.20;;;;;;10966724;32;20026;-78
2022/05/28 07:32:34;;;;;;;5.00;3.25;;;25.90;69.60;;;;;;10980123;32;20026;-76
2022/05/28 07:38:37;;;;;;;5.43;2.87;;;25.90;68.80;;;;;;10980317;32;20040;-78
2022/05/28 07:44:39;;;;;;;5.62;3.95;;;26.00;68.30;;;;;;10977580;32;20041;-77
2022/05/28 07:50:43;;;;;;;10.68;5.95;;;26.20;68.00;;;;;;10975537;32;20031;-78
2022/05/28 07:56:45;;;;;;;7.85;4.62;;;26.30;66.90;;;;;;10978480;32;20323;-77
2022/05/28 08:02:47;;;;;;;8.73;5.35;;;26.20;66.50;;;;;;10979762;32;20014;-77
2022/05/28 08:08:51;;;;;;;8.10;4.00;;;26.20;66.20;;;;;;10971944;32;20038;-78
2022/05/28 08:14:53;;;;;;;7.80;3.50;;;26.20;66.10;;;;;;10979244;32;20330;-78
2022/05/28 08:27:17;;;;;;;9.80;4.05;;;26.40;65.20;;;;;;10980812;32;20023;-77
2022/05/28 08:33:32;;;;;;;10.68;4.18;;;26.40;65.10;;;;;;10948825;32;20115;-74
2022/05/28 08:39:34;;;;;;;12.82;4.12;;;26.30;64.80;;;;;;10950661;32;20031;-73
2022/05/28 08:45:36;;;;;;;4.50;2.92;;;26.20;64.50;;;;;;10954615;32;20078;-76
2022/05/28 08:52:04;;;;;;;4.57;2.80;;;26.10;64.70;;;;;;10972269;32;20383;-77
2022/05/28 08:58:14;;;;;;;6.50;3.12;;;26.00;64.80;;;;;;10985951;32;20022;-75
2022/05/28 09:04:26;;;;;;;5.15;2.90;;;25.90;64.70;;;;;;10985224;32;20018;-72
2022/05/28 09:10:35;;;;;;;9.25;3.25;;;26.00;63.90;;;;;;10971484;32;20038;-75
2022/05/28 09:16:40;;;;;;;7.50;2.72;;;25.90;64.20;;;;;;10944588;27;20065;-76
2022/05/28 09:23:04;;;;;;;5.80;2.92;;;26.10;64.30;;;;;;10909327;32;20035;-76
2022/05/28 09:29:39;;;;;;;24.17;3.33;;;26.20;63.60;;;;;;10909005;32;20049;-74
2022/05/28 09:36:19;;;;;;;2.62;1.73;;;26.30;63.80;;;;;;10907969;32;20027;-74
2022/05/28 09:43:03;;;;;;;3.33;2.33;;;26.10;63.90;;;;;;10906651;32;20366;-73
2022/05/28 09:49:23;;;;;;;3.25;1.65;;;25.90;64.00;;;;;;10794317;33;20037;-74
2022/05/28 09:55:25;;;;;;;2.62;1.70;;;25.90;64.20;;;;;;10788520;32;20405;-75
2022/05/28 10:01:27;;;;;;;3.42;2.08;;;25.80;64.10;;;;;;10775915;33;20054;-75
2022/05/28 10:07:46;;;;;;;5.93;1.60;;;25.70;64.60;;;;;;10792656;33;20036;-73
2022/05/28 10:14:14;;;;;;;7.18;2.30;;;25.60;64.80;;;;;;10792458;33;20036;-73
2022/05/28 10:20:19;;;;;;;7.20;2.53;;;25.40;64.90;;;;;;10791813;33;20020;-74
2022/05/28 10:26:23;;;;;;;4.03;2.35;;;25.30;66.60;;;;;;10900868;32;20071;-73
2022/05/28 10:32:34;;;;;;;3.10;2.25;;;25.10;67.10;;;;;;10906725;32;20019;-76
2022/05/28 10:38:54;;;;;;;3.80;2.45;;;25.00;67.10;;;;;;10906607;32;20384;-74
2022/05/28 10:44:56;;;;;;;2.58;1.80;;;25.00;66.90;;;;;;10906335;32;20020;-77
2022/05/28 10:51:17;;;;;;;6.25;1.83;;;25.30;66.30;;;;;;10885783;32;20036;-78
2022/05/28 10:57:46;;;;;;;9.68;1.92;;;25.30;65.10;;;;;;10868718;32;20028;-74
2022/05/28 11:04:11;;;;;;;5.90;1.70;;;25.40;64.30;;;;;;10865645;32;20027;-77
2022/05/28 11:10:50;;;;;;;7.35;1.80;;;25.30;64.40;;;;;;10854868;32;20058;-77
2022/05/28 11:17:29;;;;;;;3.53;1.70;;;25.20;65.20;;;;;;10904135;32;20035;-76
2022/05/28 11:24:00;;;;;;;3.95;1.42;;;25.30;64.60;;;;;;10905315;32;20311;-71
2022/05/28 11:30:14;;;;;;;2.65;1.65;;;25.40;64.10;;;;;;10901028;32;20532;-76
2022/05/28 11:36:37;;;;;;;3.17;1.65;;;25.40;64.80;;;;;;10887823;32;20399;-73
2022/05/28 11:43:25;;;;;;;10.25;2.15;;;25.30;64.00;;;;;;10904431;32;20016;-76
2022/05/28 11:56:22;;;;;;;2.03;1.50;;;25.20;63.70;;;;;;10899388;32;20036;-77
2022/05/28 12:02:31;;;;;;;4.37;1.65;;;25.20;63.40;;;;;;10888259;32;20059;-76
2022/05/28 12:08:41;;;;;;;6.30;2.22;;;25.20;63.90;;;;;;10903545;32;20036;-78
2022/05/28 12:15:00;;;;;;;1.60;1.30;;;25.30;64.00;;;;;;10902339;32;20319;-77
2022/05/28 12:21:02;;;;;;;2.60;1.62;;;25.40;64.10;;;;;;10901164;32;20031;-78
2022/05/28 12:27:34;;;;;;;2.22;1.27;;;25.70;63.70;;;;;;10903484;32;20351;-77
2022/05/28 12:33:56;;;;;;;2.10;1.12;;;26.20;62.60;;;;;;10902963;32;20147;-75
2022/05/28 12:40:18;;;;;;;10.50;1.75;;;26.90;61.20;;;;;;10885767;32;20054;-76
2022/05/28 12:46:43;;;;;;;3.67;1.87;;;26.80;60.80;;;;;;10902859;32;20031;-78
2022/05/28 12:52:51;;;;;;;6.15;1.87;;;26.60;60.40;;;;;;10898596;32;20023;-78
2022/05/28 12:59:22;;;;;;;5.28;1.52;;;26.60;60.00;;;;;;10902488;32;20046;-78
2022/05/28 13:05:29;;;;;;;8.23;1.73;;;26.40;60.50;;;;;;10899253;32;20027;-75
2022/05/28 13:12:03;;;;;;;4.37;1.80;;;26.20;61.00;;;;;;10905148;32;20090;-77
2022/05/28 13:18:14;;;;;;;2.55;1.70;;;26.00;62.20;;;;;;10908805;32;20050;-78
2022/05/28 13:25:11;;;;;;;7.30;1.90;;;25.70;61.80;;;;;;10907826;32;20027;-78
2022/05/28 13:31:20;;;;;;;14.50;1.55;;;25.50;62.10;;;;;;10757195;32;20036;-73
2022/05/28 13:37:22;;;;;;;1.75;1.20;;;25.40;62.60;;;;;;10755418;32;20032;-80
2022/05/28 13:43:32;;;;;;;3.17;1.60;;;25.70;62.70;;;;;;10757011;32;20056;-76
2022/05/28 13:49:38;;;;;;;4.37;1.95;;;25.90;62.60;;;;;;10753614;32;20063;-77
2022/05/28 13:55:42;;;;;;;7.43;1.87;;;25.80;63.60;;;;;;10756071;32;20471;-78
2022/05/28 14:01:49;;;;;;;3.75;1.48;;;25.80;64.70;;;;;;10795359;32;20031;-79
2022/05/28 14:07:52;;;;;;;5.53;1.60;;;25.50;64.20;;;;;;10907341;32;20027;-77
2022/05/28 14:14:16;;;;;;;3.80;1.62;;;25.30;63.90;;;;;;10905230;32;20035;-77
2022/05/28 14:20:29;;;;;;;1.55;1.10;;;25.20;64.40;;;;;;10905826;32;20015;-78
2022/05/28 14:26:32;;;;;;;3.75;1.17;;;25.10;64.40;;;;;;10903321;32;20081;-73
2022/05/28 14:32:51;;;;;;;2.05;1.33;;;25.00;64.80;;;;;;10904517;32;20019;-77
2022/05/28 14:38:53;;;;;;;2.67;1.00;;;25.10;64.40;;;;;;10877276;32;20051;-77
2022/05/28 14:45:01;;;;;;;3.15;1.70;;;25.00;64.30;;;;;;10855173;32;20019;-76
2022/05/28 14:51:05;;;;;;;3.37;0.93;;;24.90;63.90;;;;;;10864585;32;20023;-77
2022/05/28 14:57:30;;;;;;;1.30;1.02;;;24.80;63.90;;;;;;10868915;32;20090;-76
2022/05/28 15:03:34;;;;;;;1.37;0.95;;;24.60;63.90;;;;;;10868208;32;20416;-77
2022/05/28 15:09:50;;;;;;;13.88;1.60;;;24.60;63.90;;;;;;10867746;32;20042;-77
2022/05/28 15:15:58;;;;;;;3.05;1.10;;;24.70;64.50;;;;;;10868273;32;20443;-76
2022/05/28 15:22:34;;;;;;;5.50;0.95;;;24.80;65.30;;;;;;10867815;32;20085;-76
2022/05/28 15:28:36;;;;;;;6.40;0.88;;;24.60;65.10;;;;;;10867731;32;20058;-78
2022/05/28 15:34:39;;;;;;;4.07;1.25;;;24.60;65.50;;;;;;10863382;32;20310;-78
2022/05/28 15:40:42;;;;;;;3.03;1.15;;;24.50;66.10;;;;;;10867653;32;20355;-78
2022/05/28 15:46:45;;;;;;;1.70;1.00;;;24.40;66.90;;;;;;10867226;32;20077;-77
2022/05/28 15:52:48;;;;;;;7.53;2.15;;;24.20;67.30;;;;;;10867221;32;20016;-75
2022/05/28 15:58:50;;;;;;;3.42;0.93;;;24.10;68.50;;;;;;10867143;32;20332;-76
2022/05/28 16:05:13;;;;;;;3.65;1.35;;;23.90;68.00;;;;;;10866816;32;20031;-78
2022/05/28 16:11:28;;;;;;;3.08;0.82;;;23.80;68.00;;;;;;10867105;32;20039;-77
2022/05/28 16:17:32;;;;;;;7.18;1.73;;;23.80;69.10;;;;;;10866777;32;20101;-77
2022/05/28 16:23:34;;;;;;;1.83;1.10;;;23.80;68.20;;;;;;10862435;32;20050;-77
2022/05/28 16:29:36;;;;;;;10.82;1.33;;;23.70;68.50;;;;;;10866519;32;20393;-77
2022/05/28 16:35:38;;;;;;;3.25;1.17;;;23.60;68.60;;;;;;10866533;32;20015;-77
2022/05/28 16:41:41;;;;;;;2.28;1.25;;;23.50;68.90;;;;;;10868340;32;20336;-76
2022/05/28 16:47:43;;;;;;;4.87;1.10;;;23.30;69.60;;;;;;10856564;32;20027;-76
2022/05/28 16:53:45;;;;;;;3.17;1.58;;;23.20;69.60;;;;;;10873222;32;20415;-73
2022/05/28 16:59:49;;;;;;;1.50;0.90;;;23.00;70.10;;;;;;10871711;32;20389;-75
2022/05/28 17:06:18;;;;;;;2.70;0.80;;;22.90;69.90;;;;;;10859632;32;20074;-75
2022/05/28 17:12:25;;;;;;;3.30;1.10;;;22.90;69.20;;;;;;10872604;32;20450;-76
2022/05/28 17:18:27;;;;;;;3.60;1.00;;;22.80;69.20;;;;;;10906748;27;20054;-76
2022/05/28 17:24:31;;;;;;;2.60;1.45;;;22.70;70.20;;;;;;10909552;32;20344;-75
2022/05/28 17:30:37;;;;;;;1.73;1.12;;;22.70;71.20;;;;;;10909240;32;20027;-72
2022/05/28 17:36:39;;;;;;;2.37;1.33;;;22.50;71.80;;;;;;10877080;32;20403;-74
2022/05/28 17:42:42;;;;;;;2.10;1.35;;;22.20;73.40;;;;;;10871038;32;20443;-75
2022/05/28 17:55:30;;;;;;;3.92;1.67;;;21.80;74.70;;;;;;10792731;33;20024;-76
2022/05/28 18:01:45;;;;;;;2.08;1.50;;;21.70;75.00;;;;;;10792740;33;20106;-74
2022/05/28 18:07:49;;;;;;;5.47;1.48;;;21.50;75.30;;;;;;10781526;33;20028;-76
2022/05/28 18:13:51;;;;;;;1.62;1.40;;;21.40;76.20;;;;;;10790337;32;20037;-74
2022/05/28 18:19:53;;;;;;;1.33;1.12;;;21.30;76.50;;;;;;10792940;33;20020;-75
2022/05/28 18:25:58;;;;;;;2.83;1.65;;;21.30;77.20;;;;;;10793325;33;20329;-75
2022/05/28 18:32:00;;;;;;;2.58;1.80;;;21.20;77.30;;;;;;10847393;32;20024;-73
2022/05/28 18:38:04;;;;;;;1.27;0.98;;;21.10;77.90;;;;;;10869207;32;20090;-74
2022/05/28 18:44:10;;;;;;;3.53;1.92;;;20.90;78.10;;;;;;10856117;32;20016;-73
2022/05/28 18:50:12;;;;;;;5.15;1.37;;;20.80;78.00;;;;;;10855970;32;20352;-75
2022/05/28 18:56:17;;;;;;;2.22;1.55;;;20.80;78.40;;;;;;10868888;32;20038;-74
2022/05/28 19:02:21;;;;;;;3.53;1.87;;;20.70;78.90;;;;;;10856148;32;20020;-73
2022/05/28 19:08:28;;;;;;;5.55;2.20;;;20.70;78.80;;;;;;10868238;32;20073;-77
2022/05/28 19:14:30;;;;;;;2.65;1.75;;;20.30;78.80;;;;;;10868295;32;20340;-74
2022/05/28 19:20:34;;;;;;;1.40;1.30;;;20.30;77.80;;;;;;10868018;32;20055;-75
2022/05/28 19:33:22;;;;;;;1.62;1.33;;;20.10;79.80;;;;;;10867917;32;20367;-78
2022/05/28 19:39:25;;;;;;;1.27;1.15;;;20.20;79.80;;;;;;10867610;32;20053;-78
2022/05/28 19:45:56;;;;;;;2.95;2.00;;;20.50;79.60;;;;;;10854349;32;20381;-76
2022/05/28 19:51:59;;;;;;;2.92;1.52;;;20.40;79.10;;;;;;10863121;32;20051;-77
2022/05/28 20:04:42;;;;;;;2.80;1.45;;;20.30;79.50;;;;;;10867085;32;20044;-76
2022/05/28 20:10:45;;;;;;;3.78;1.27;;;20.50;80.00;;;;;;10866866;32;20040;-77
2022/05/28 20:16:47;;;;;;;2.03;1.00;;;20.50;80.20;;;;;;10868997;32;20016;-76
2022/05/28 20:22:50;;;;;;;2.00;1.40;;;20.50;80.30;;;;;;10874387;32;20348;-76
2022/05/28 20:28:53;;;;;;;1.67;1.10;;;20.70;80.00;;;;;;10874091;32;20020;-76
2022/05/28 20:34:55;;;;;;;3.40;1.58;;;20.80;79.80;;;;;;10872082;32;20095;-75
2022/05/28 20:40:57;;;;;;;1.35;0.98;;;20.80;79.70;;;;;;10872615;32;20027;-74
2022/05/28 20:47:05;;;;;;;2.25;1.50;;;20.70;79.60;;;;;;10873333;32;20016;-77
2022/05/28 20:53:47;;;;;;;1.40;1.20;;;20.60;79.90;;;;;;10873196;32;20071;-76
2022/05/28 20:59:50;;;;;;;1.25;1.15;;;20.40;79.30;;;;;;10758946;33;20051;-76
2022/05/28 21:05:54;;;;;;;2.00;1.20;;;20.30;79.30;;;;;;10758734;33;20195;-74
2022/05/28 21:11:56;;;;;;;1.37;1.20;;;20.20;79.40;;;;;;10758292;33;20089;-77
2022/05/28 21:18:00;;;;;;;2.55;1.45;;;20.10;79.40;;;;;;10756136;33;20028;-76
2022/05/28 21:24:05;;;;;;;1.23;1.02;;;20.10;79.30;;;;;;10757921;33;20314;-76
2022/05/28 21:30:09;;;;;;;0.93;0.90;;;20.30;79.00;;;;;;10779705;32;20344;-76
2022/05/28 21:36:12;;;;;;;3.10;1.10;;;20.30;78.60;;;;;;10871647;32;20092;-75
2022/05/28 21:42:15;;;;;;;0.88;0.82;;;20.40;78.60;;;;;;10869047;32;20020;-74
2022/05/28 21:48:20;;;;;;;0.80;0.70;;;20.40;78.40;;;;;;10871202;32;20031;-76
2022/05/28 21:54:25;;;;;;;1.70;0.85;;;20.30;78.70;;;;;;10868250;32;20054;-77
2022/05/28 22:00:28;;;;;;;2.15;1.05;;;20.10;78.50;;;;;;10870850;32;20046;-77
2022/05/28 22:06:32;;;;;;;1.52;1.02;;;20.00;78.60;;;;;;10870684;32;20023;-76
2022/05/28 22:12:37;;;;;;;2.00;1.33;;;19.90;78.70;;;;;;10866684;32;20028;-76
2022/05/28 22:18:41;;;;;;;1.20;0.88;;;19.80;78.20;;;;;;10870494;32;20020;-77
2022/05/28 22:25:34;;;;;;;2.50;1.15;;;19.80;78.40;;;;;;10871389;32;20074;-76
2022/05/28 22:31:40;;;;;;;0.80;0.80;;;19.70;78.60;;;;;;10869818;32;20046;-76
2022/05/28 22:37:42;;;;;;;1.20;1.08;;;19.80;78.60;;;;;;10869409;32;20329;-76
2022/05/28 22:43:44;;;;;;;2.58;1.15;;;19.90;78.80;;;;;;10869098;32;20039;-76
2022/05/28 22:49:46;;;;;;;3.12;1.00;;;20.10;78.70;;;;;;10856048;32;20414;-76
2022/05/28 22:55:48;;;;;;;0.62;0.62;;;20.10;78.70;;;;;;10869069;32;20019;-76
2022/05/28 23:01:51;;;;;;;1.08;0.85;;;20.20;78.90;;;;;;10868773;32;20016;-76
2022/05/28 23:08:06;;;;;;;0.50;0.50;;;20.20;78.40;;;;;;10868491;32;20408;-76
2022/05/28 23:14:09;;;;;;;0.93;0.88;;;20.20;79.00;;;;;;10868214;32;20050;-76
2022/05/28 23:20:25;;;;;;;0.77;0.77;;;20.20;79.30;;;;;;10867953;32;20384;-75
2022/05/28 23:26:27;;;;;;;1.00;0.90;;;20.20;79.40;;;;;;10868241;32;20038;-77
2022/05/28 23:32:29;;;;;;;3.90;1.30;;;20.20;79.50;;;;;;10854443;32;20028;-76
2022/05/28 23:38:31;;;;;;;0.80;0.80;;;20.20;79.50;;;;;;10867652;32;20011;-77
2022/05/28 23:44:33;;;;;;;1.02;0.90;;;20.30;79.70;;;;;;10854301;32;20041;-76
2022/05/28 23:50:35;;;;;;;1.17;1.00;;;20.30;80.00;;;;;;10863072;32;20027;-74
2022/05/28 23:56:39;;;;;;;2.35;1.15;;;20.20;80.20;;;;;;10867189;32;20027;-77
